sensor_id;sensor_type;location;lat;lon;timestamp;P1;durP1;ratioP1;P2;durP2;ratioP2
76837;SDS011;65797;47.352;8.164;2023-02-27T00:00:31;2.77;;;1.00;;
76837;SDS011;65797;47.352;8.164;2023-02-27T00:02:57;1.37;;;1.27;;
76837;SDS011;65797;47.352;8.164;2023-02-27T00:05:23;1.63;;;1.20;;
76837;SDS011;65797;47.352;8.164;2023-02-27T00:07:49;1.17;;;1.17;;
76837;SDS011;65797;47.352;8.164;2023-02-27T00:10:15;1.53;;;1.40;;
76837;SDS011;65797;47.352;8.164;2023-02-27T00:12:42;1.30;;;1.20;;
76837;SDS011;65797;47.352;8.164;2023-02-27T00:15:09;2.37;;;1.60;;
76837;SDS011;65797;47.352;8.164;2023-02-27T00:17:37;3.50;;;1.33;;
76837;SDS011;65797;47.352;8.164;2023-02-27T00:20:03;1.40;;;1.33;;
76837;SDS011;65797;47.352;8.164;2023-02-27T00:22:30;1.63;;;1.50;;
76837;SDS011;65797;47.352;8.164;2023-02-27T00:24:56;0.97;;;0.97;;
76837;SDS011;65797;47.352;8.164;2023-02-27T00:27:21;1.50;;;1.40;;
76837;SDS011;65797;47.352;8.164;2023-02-27T00:29:47;4.27;;;1.70;;
76837;SDS011;65797;47.352;8.164;2023-02-27T00:32:13;1.10;;;1.10;;
76837;SDS011;65797;47.352;8.164;2023-02-27T00:34:39;2.30;;;0.90;;
76837;SDS011;65797;47.352;8.164;2023-02-27T00:37:05;1.23;;;1.20;;
76837;SDS011;65797;47.352;8.164;2023-02-27T00:39:31;1.93;;;1.30;;
76837;SDS011;65797;47.352;8.164;2023-02-27T00:41:57;1.53;;;1.43;;
76837;SDS011;65797;47.352;8.164;2023-02-27T00:44:23;1.30;;;1.30;;
76837;SDS011;65797;47.352;8.164;2023-02-27T00:46:49;1.17;;;1.17;;
76837;SDS011;65797;47.352;8.164;2023-02-27T00:49:14;3.43;;;1.47;;
76837;SDS011;65797;47.352;8.164;2023-02-27T00:51:40;1.43;;;1.40;;
76837;SDS011;65797;47.352;8.164;2023-02-27T00:54:06;1.23;;;1.20;;
76837;SDS011;65797;47.352;8.164;2023-02-27T00:56:33;1.67;;;1.57;;
76837;SDS011;65797;47.352;8.164;2023-02-27T00:58:58;1.40;;;1.30;;
76837;SDS011;65797;47.352;8.164;2023-02-27T01:01:24;1.80;;;1.70;;
76837;SDS011;65797;47.352;8.164;2023-02-27T01:03:50;2.13;;;1.67;;
76837;SDS011;65797;47.352;8.164;2023-02-27T01:06:15;1.80;;;1.70;;
76837;SDS011;65797;47.352;8.164;2023-02-27T01:08:41;1.60;;;1.60;;
76837;SDS011;65797;47.352;8.164;2023-02-27T01:11:07;1.77;;;1.67;;
76837;SDS011;65797;47.352;8.164;2023-02-27T01:13:33;2.20;;;1.57;;
76837;SDS011;65797;47.352;8.164;2023-02-27T01:15:58;1.43;;;1.33;;
76837;SDS011;65797;47.352;8.164;2023-02-27T01:18:24;1.90;;;1.80;;
76837;SDS011;65797;47.352;8.164;2023-02-27T01:20:50;3.87;;;1.70;;
76837;SDS011;65797;47.352;8.164;2023-02-27T01:23:20;1.47;;;1.47;;
76837;SDS011;65797;47.352;8.164;2023-02-27T01:25:46;1.70;;;1.60;;
76837;SDS011;65797;47.352;8.164;2023-02-27T01:28:13;2.03;;;1.47;;
76837;SDS011;65797;47.352;8.164;2023-02-27T01:30:39;1.60;;;1.50;;
76837;SDS011;65797;47.352;8.164;2023-02-27T01:33:06;1.80;;;1.70;;
76837;SDS011;65797;47.352;8.164;2023-02-27T01:35:32;1.70;;;1.60;;
76837;SDS011;65797;47.352;8.164;2023-02-27T01:37:58;5.07;;;1.90;;
76837;SDS011;65797;47.352;8.164;2023-02-27T01:40:24;3.57;;;2.07;;
76837;SDS011;65797;47.352;8.164;2023-02-27T01:42:50;2.73;;;1.60;;
76837;SDS011;65797;47.352;8.164;2023-02-27T01:45:29;1.93;;;1.50;;
76837;SDS011;65797;47.352;8.164;2023-02-27T01:47:57;1.80;;;1.43;;
76837;SDS011;65797;47.352;8.164;2023-02-27T01:50:25;1.17;;;1.17;;
76837;SDS011;65797;47.352;8.164;2023-02-27T01:52:52;1.97;;;1.37;;
76837;SDS011;65797;47.352;8.164;2023-02-27T01:55:21;1.80;;;1.70;;
76837;SDS011;65797;47.352;8.164;2023-02-27T01:57:48;1.70;;;1.60;;
76837;SDS011;65797;47.352;8.164;2023-02-27T02:00:15;1.80;;;1.70;;
76837;SDS011;65797;47.352;8.164;2023-02-27T02:02:43;2.50;;;1.97;;
76837;SDS011;65797;47.352;8.164;2023-02-27T02:05:16;1.43;;;1.30;;
76837;SDS011;65797;47.352;8.164;2023-02-27T02:07:43;2.60;;;2.07;;
76837;SDS011;65797;47.352;8.164;2023-02-27T02:10:09;1.57;;;1.37;;
76837;SDS011;65797;47.352;8.164;2023-02-27T02:12:37;8.00;;;1.27;;
76837;SDS011;65797;47.352;8.164;2023-02-27T02:15:04;1.63;;;1.53;;
76837;SDS011;65797;47.352;8.164;2023-02-27T02:17:44;1.80;;;1.40;;
76837;SDS011;65797;47.352;8.164;2023-02-27T02:43:07;1.67;;;1.47;;
76837;SDS011;65797;47.352;8.164;2023-02-27T02:45:50;1.63;;;1.53;;
76837;SDS011;65797;47.352;8.164;2023-02-27T02:48:21;2.00;;;1.90;;
76837;SDS011;65797;47.352;8.164;2023-02-27T02:54:01;1.40;;;1.30;;
76837;SDS011;65797;47.352;8.164;2023-02-27T02:56:43;2.13;;;1.50;;
76837;SDS011;65797;47.352;8.164;2023-02-27T02:59:17;2.20;;;2.00;;
76837;SDS011;65797;47.352;8.164;2023-02-27T03:02:03;2.70;;;1.77;;
76837;SDS011;65797;47.352;8.164;2023-02-27T03:07:18;2.10;;;2.00;;
76837;SDS011;65797;47.352;8.164;2023-02-27T03:12:37;2.90;;;2.27;;
76837;SDS011;65797;47.352;8.164;2023-02-27T03:15:15;1.80;;;1.70;;
76837;SDS011;65797;47.352;8.164;2023-02-27T03:17:54;1.63;;;1.53;;
76837;SDS011;65797;47.352;8.164;2023-02-27T03:20:29;1.20;;;0.90;;
76837;SDS011;65797;47.352;8.164;2023-02-27T03:23:00;1.53;;;1.43;;
76837;SDS011;65797;47.352;8.164;2023-02-27T03:25:31;1.73;;;1.63;;
76837;SDS011;65797;47.352;8.164;2023-02-27T03:27:59;2.03;;;1.83;;
76837;SDS011;65797;47.352;8.164;2023-02-27T03:30:43;2.80;;;1.50;;
76837;SDS011;65797;47.352;8.164;2023-02-27T03:33:26;1.43;;;1.43;;
76837;SDS011;65797;47.352;8.164;2023-02-27T03:35:56;1.80;;;1.70;;
76837;SDS011;65797;47.352;8.164;2023-02-27T03:38:39;1.53;;;1.43;;
76837;SDS011;65797;47.352;8.164;2023-02-27T03:44:03;1.90;;;1.80;;
76837;SDS011;65797;47.352;8.164;2023-02-27T03:46:44;1.33;;;1.33;;
76837;SDS011;65797;47.352;8.164;2023-02-27T03:49:10;1.87;;;1.67;;
76837;SDS011;65797;47.352;8.164;2023-02-27T03:51:35;1.83;;;1.67;;
76837;SDS011;65797;47.352;8.164;2023-02-27T03:54:18;1.67;;;1.57;;
76837;SDS011;65797;47.352;8.164;2023-02-27T03:57:02;1.70;;;1.40;;
76837;SDS011;65797;47.352;8.164;2023-02-27T03:59:31;1.60;;;1.50;;
76837;SDS011;65797;47.352;8.164;2023-02-27T04:01:58;1.70;;;1.60;;
76837;SDS011;65797;47.352;8.164;2023-02-27T04:04:26;1.67;;;1.40;;
76837;SDS011;65797;47.352;8.164;2023-02-27T04:18:09;2.27;;;1.40;;
76837;SDS011;65797;47.352;8.164;2023-02-27T04:23:18;1.83;;;1.70;;
76837;SDS011;65797;47.352;8.164;2023-02-27T04:31:45;1.60;;;1.50;;
76837;SDS011;65797;47.352;8.164;2023-02-27T04:34:18;1.30;;;1.20;;
76837;SDS011;65797;47.352;8.164;2023-02-27T04:36:57;2.53;;;1.40;;
76837;SDS011;65797;47.352;8.164;2023-02-27T04:39:31;1.70;;;1.60;;
76837;SDS011;65797;47.352;8.164;2023-02-27T04:42:10;2.20;;;2.00;;
76837;SDS011;65797;47.352;8.164;2023-02-27T04:44:40;1.37;;;1.27;;
76837;SDS011;65797;47.352;8.164;2023-02-27T04:47:07;5.30;;;1.23;;
76837;SDS011;65797;47.352;8.164;2023-02-27T04:49:36;10.50;;;1.70;;
76837;SDS011;65797;47.352;8.164;2023-02-27T04:52:10;1.83;;;1.73;;
76837;SDS011;65797;47.352;8.164;2023-02-27T04:54:38;1.37;;;1.33;;
76837;SDS011;65797;47.352;8.164;2023-02-27T04:57:10;2.50;;;2.20;;
76837;SDS011;65797;47.352;8.164;2023-02-27T04:59:44;1.60;;;1.50;;
76837;SDS011;65797;47.352;8.164;2023-02-27T05:02:30;1.57;;;1.40;;
76837;SDS011;65797;47.352;8.164;2023-02-27T05:05:02;2.03;;;1.93;;
76837;SDS011;65797;47.352;8.164;2023-02-27T05:07:34;3.70;;;2.07;;
76837;SDS011;65797;47.352;8.164;2023-02-27T05:10:36;2.60;;;1.50;;
76837;SDS011;65797;47.352;8.164;2023-02-27T05:13:17;1.70;;;1.60;;
76837;SDS011;65797;47.352;8.164;2023-02-27T05:15:55;1.93;;;1.83;;
76837;SDS011;65797;47.352;8.164;2023-02-27T05:18:27;1.37;;;1.27;;
76837;SDS011;65797;47.352;8.164;2023-02-27T05:32:08;1.57;;;1.47;;
76837;SDS011;65797;47.352;8.164;2023-02-27T05:35:10;1.40;;;1.30;;
76837;SDS011;65797;47.352;8.164;2023-02-27T05:37:50;2.63;;;1.97;;
76837;SDS011;65797;47.352;8.164;2023-02-27T05:40:32;16.40;;;1.70;;
76837;SDS011;65797;47.352;8.164;2023-02-27T05:43:03;2.00;;;1.80;;
76837;SDS011;65797;47.352;8.164;2023-02-27T05:45:34;2.07;;;1.80;;
76837;SDS011;65797;47.352;8.164;2023-02-27T05:48:13;1.87;;;1.77;;
76837;SDS011;65797;47.352;8.164;2023-02-27T05:50:44;2.50;;;1.60;;
76837;SDS011;65797;47.352;8.164;2023-02-27T05:53:15;2.60;;;1.67;;
76837;SDS011;65797;47.352;8.164;2023-02-27T06:00:56;2.00;;;1.63;;
76837;SDS011;65797;47.352;8.164;2023-02-27T06:03:24;1.93;;;1.70;;
76837;SDS011;65797;47.352;8.164;2023-02-27T06:05:51;1.73;;;1.63;;
76837;SDS011;65797;47.352;8.164;2023-02-27T06:08:18;4.27;;;1.83;;
76837;SDS011;65797;47.352;8.164;2023-02-27T06:10:45;2.77;;;1.43;;
76837;SDS011;65797;47.352;8.164;2023-02-27T06:13:12;2.57;;;2.37;;
76837;SDS011;65797;47.352;8.164;2023-02-27T06:15:38;2.37;;;2.10;;
76837;SDS011;65797;47.352;8.164;2023-02-27T06:18:04;2.90;;;2.23;;
76837;SDS011;65797;47.352;8.164;2023-02-27T06:20:30;1.67;;;1.40;;
76837;SDS011;65797;47.352;8.164;2023-02-27T06:22:56;2.00;;;1.90;;
76837;SDS011;65797;47.352;8.164;2023-02-27T06:25:21;5.60;;;2.07;;
76837;SDS011;65797;47.352;8.164;2023-02-27T06:27:47;2.17;;;1.97;;
76837;SDS011;65797;47.352;8.164;2023-02-27T06:30:13;1.60;;;1.50;;
76837;SDS011;65797;47.352;8.164;2023-02-27T06:35:14;3.90;;;2.07;;
76837;SDS011;65797;47.352;8.164;2023-02-27T06:37:40;4.60;;;1.90;;
76837;SDS011;65797;47.352;8.164;2023-02-27T06:40:06;2.40;;;2.03;;
76837;SDS011;65797;47.352;8.164;2023-02-27T06:42:38;2.67;;;2.00;;
76837;SDS011;65797;47.352;8.164;2023-02-27T06:45:05;2.77;;;1.50;;
76837;SDS011;65797;47.352;8.164;2023-02-27T06:47:32;2.40;;;1.63;;
76837;SDS011;65797;47.352;8.164;2023-02-27T06:49:58;2.20;;;2.10;;
76837;SDS011;65797;47.352;8.164;2023-02-27T06:52:24;4.73;;;2.10;;
76837;SDS011;65797;47.352;8.164;2023-02-27T06:54:50;2.43;;;1.90;;
76837;SDS011;65797;47.352;8.164;2023-02-27T06:57:15;3.27;;;1.47;;
76837;SDS011;65797;47.352;8.164;2023-02-27T06:59:41;2.40;;;1.60;;
76837;SDS011;65797;47.352;8.164;2023-02-27T07:02:10;2.10;;;2.00;;
76837;SDS011;65797;47.352;8.164;2023-02-27T07:04:37;2.90;;;1.83;;
76837;SDS011;65797;47.352;8.164;2023-02-27T07:07:03;1.83;;;1.73;;
76837;SDS011;65797;47.352;8.164;2023-02-27T07:09:32;1.57;;;1.43;;
76837;SDS011;65797;47.352;8.164;2023-02-27T07:11:58;2.50;;;1.90;;
76837;SDS011;65797;47.352;8.164;2023-02-27T07:14:23;1.87;;;1.77;;
76837;SDS011;65797;47.352;8.164;2023-02-27T07:16:50;3.00;;;2.43;;
76837;SDS011;65797;47.352;8.164;2023-02-27T07:19:19;2.03;;;1.83;;
76837;SDS011;65797;47.352;8.164;2023-02-27T07:21:48;1.90;;;1.80;;
76837;SDS011;65797;47.352;8.164;2023-02-27T07:24:14;1.57;;;1.47;;
76837;SDS011;65797;47.352;8.164;2023-02-27T07:26:40;2.67;;;2.00;;
76837;SDS011;65797;47.352;8.164;2023-02-27T07:29:05;2.33;;;1.77;;
76837;SDS011;65797;47.352;8.164;2023-02-27T07:31:32;2.17;;;2.03;;
76837;SDS011;65797;47.352;8.164;2023-02-27T07:33:58;2.13;;;1.73;;
76837;SDS011;65797;47.352;8.164;2023-02-27T07:36:24;6.10;;;2.33;;
76837;SDS011;65797;47.352;8.164;2023-02-27T07:38:49;3.17;;;1.80;;
76837;SDS011;65797;47.352;8.164;2023-02-27T07:41:15;1.60;;;1.50;;
76837;SDS011;65797;47.352;8.164;2023-02-27T07:43:41;2.10;;;1.73;;
76837;SDS011;65797;47.352;8.164;2023-02-27T07:46:07;3.83;;;2.60;;
76837;SDS011;65797;47.352;8.164;2023-02-27T07:48:33;2.07;;;1.87;;
76837;SDS011;65797;47.352;8.164;2023-02-27T07:50:59;16.13;;;2.30;;
76837;SDS011;65797;47.352;8.164;2023-02-27T07:53:25;2.00;;;1.90;;
76837;SDS011;65797;47.352;8.164;2023-02-27T07:55:51;1.67;;;1.57;;
76837;SDS011;65797;47.352;8.164;2023-02-27T07:58:16;1.97;;;1.87;;
76837;SDS011;65797;47.352;8.164;2023-02-27T08:00:42;2.17;;;2.07;;
76837;SDS011;65797;47.352;8.164;2023-02-27T08:03:08;2.30;;;2.10;;
76837;SDS011;65797;47.352;8.164;2023-02-27T08:05:34;1.70;;;1.60;;
76837;SDS011;65797;47.352;8.164;2023-02-27T08:08:00;2.70;;;2.17;;
76837;SDS011;65797;47.352;8.164;2023-02-27T08:10:26;1.70;;;1.60;;
76837;SDS011;65797;47.352;8.164;2023-02-27T08:12:52;2.07;;;1.97;;
76837;SDS011;65797;47.352;8.164;2023-02-27T08:15:18;4.30;;;2.10;;
76837;SDS011;65797;47.352;8.164;2023-02-27T08:17:44;4.70;;;2.07;;
76837;SDS011;65797;47.352;8.164;2023-02-27T08:20:11;1.63;;;1.53;;
76837;SDS011;65797;47.352;8.164;2023-02-27T08:22:38;2.20;;;2.00;;
76837;SDS011;65797;47.352;8.164;2023-02-27T08:25:05;2.00;;;1.90;;
76837;SDS011;65797;47.352;8.164;2023-02-27T08:27:32;3.50;;;1.87;;
76837;SDS011;65797;47.352;8.164;2023-02-27T08:29:58;2.20;;;2.00;;
76837;SDS011;65797;47.352;8.164;2023-02-27T08:32:25;2.53;;;2.13;;
76837;SDS011;65797;47.352;8.164;2023-02-27T08:34:51;1.93;;;1.73;;
76837;SDS011;65797;47.352;8.164;2023-02-27T08:37:17;2.37;;;2.27;;
76837;SDS011;65797;47.352;8.164;2023-02-27T08:39:42;2.00;;;1.90;;
76837;SDS011;65797;47.352;8.164;2023-02-27T08:42:08;2.00;;;1.90;;
76837;SDS011;65797;47.352;8.164;2023-02-27T08:44:34;2.10;;;2.00;;
76837;SDS011;65797;47.352;8.164;2023-02-27T08:47:00;2.20;;;2.00;;
76837;SDS011;65797;47.352;8.164;2023-02-27T08:49:25;2.33;;;2.13;;
76837;SDS011;65797;47.352;8.164;2023-02-27T08:51:51;2.13;;;2.03;;
76837;SDS011;65797;47.352;8.164;2023-02-27T08:54:18;1.90;;;1.80;;
76837;SDS011;65797;47.352;8.164;2023-02-27T08:56:45;1.73;;;1.63;;
76837;SDS011;65797;47.352;8.164;2023-02-27T08:59:11;4.97;;;2.57;;
76837;SDS011;65797;47.352;8.164;2023-02-27T09:01:38;2.37;;;2.17;;
76837;SDS011;65797;47.352;8.164;2023-02-27T09:04:04;2.27;;;2.10;;
76837;SDS011;65797;47.352;8.164;2023-02-27T09:06:31;2.60;;;1.97;;
76837;SDS011;65797;47.352;8.164;2023-02-27T09:08:59;2.17;;;1.97;;
76837;SDS011;65797;47.352;8.164;2023-02-27T09:11:25;2.60;;;2.10;;
76837;SDS011;65797;47.352;8.164;2023-02-27T09:13:52;4.60;;;1.70;;
76837;SDS011;65797;47.352;8.164;2023-02-27T09:16:21;2.30;;;2.10;;
76837;SDS011;65797;47.352;8.164;2023-02-27T09:18:48;2.10;;;1.93;;
76837;SDS011;65797;47.352;8.164;2023-02-27T09:21:14;1.60;;;1.50;;
76837;SDS011;65797;47.352;8.164;2023-02-27T09:23:41;2.60;;;1.67;;
76837;SDS011;65797;47.352;8.164;2023-02-27T09:26:07;2.53;;;1.80;;
76837;SDS011;65797;47.352;8.164;2023-02-27T09:28:34;2.20;;;2.00;;
76837;SDS011;65797;47.352;8.164;2023-02-27T09:31:01;4.40;;;2.30;;
76837;SDS011;65797;47.352;8.164;2023-02-27T09:33:29;3.03;;;2.13;;
76837;SDS011;65797;47.352;8.164;2023-02-27T09:35:55;2.17;;;1.97;;
76837;SDS011;65797;47.352;8.164;2023-02-27T09:38:22;3.17;;;2.17;;
76837;SDS011;65797;47.352;8.164;2023-02-27T09:40:48;2.53;;;2.00;;
76837;SDS011;65797;47.352;8.164;2023-02-27T09:46:03;2.20;;;2.10;;
76837;SDS011;65797;47.352;8.164;2023-02-27T09:48:41;4.20;;;1.87;;
76837;SDS011;65797;47.352;8.164;2023-02-27T09:51:13;2.10;;;1.90;;
76837;SDS011;65797;47.352;8.164;2023-02-27T09:53:41;1.70;;;1.60;;
76837;SDS011;65797;47.352;8.164;2023-02-27T10:02:04;2.13;;;2.03;;
76837;SDS011;65797;47.352;8.164;2023-02-27T10:04:56;2.63;;;1.87;;
76837;SDS011;65797;47.352;8.164;2023-02-27T10:07:40;2.30;;;2.10;;
76837;SDS011;65797;47.352;8.164;2023-02-27T10:12:58;3.00;;;2.10;;
76837;SDS011;65797;47.352;8.164;2023-02-27T10:15:37;1.50;;;1.40;;
76837;SDS011;65797;47.352;8.164;2023-02-27T10:20:47;2.30;;;2.10;;
76837;SDS011;65797;47.352;8.164;2023-02-27T10:23:21;2.23;;;2.03;;
76837;SDS011;65797;47.352;8.164;2023-02-27T10:25:54;2.63;;;2.40;;
76837;SDS011;65797;47.352;8.164;2023-02-27T10:28:25;2.00;;;1.77;;
76837;SDS011;65797;47.352;8.164;2023-02-27T10:30:52;2.90;;;2.33;;
76837;SDS011;65797;47.352;8.164;2023-02-27T10:33:37;3.10;;;2.13;;
76837;SDS011;65797;47.352;8.164;2023-02-27T10:36:04;1.97;;;1.87;;
76837;SDS011;65797;47.352;8.164;2023-02-27T10:38:40;3.20;;;2.27;;
76837;SDS011;65797;47.352;8.164;2023-02-27T10:41:11;3.30;;;2.00;;
76837;SDS011;65797;47.352;8.164;2023-02-27T10:43:39;2.40;;;2.20;;
76837;SDS011;65797;47.352;8.164;2023-02-27T10:46:09;4.57;;;2.23;;
76837;SDS011;65797;47.352;8.164;2023-02-27T10:48:49;1.97;;;1.87;;
76837;SDS011;65797;47.352;8.164;2023-02-27T10:51:36;4.33;;;2.43;;
76837;SDS011;65797;47.352;8.164;2023-02-27T10:56:40;3.30;;;2.20;;
76837;SDS011;65797;47.352;8.164;2023-02-27T11:02:05;3.90;;;2.30;;
76837;SDS011;65797;47.352;8.164;2023-02-27T11:04:52;4.13;;;2.00;;
76837;SDS011;65797;47.352;8.164;2023-02-27T11:10:02;1.93;;;1.83;;
76837;SDS011;65797;47.352;8.164;2023-02-27T11:12:35;2.97;;;2.23;;
76837;SDS011;65797;47.352;8.164;2023-02-27T11:15:22;3.73;;;2.20;;
76837;SDS011;65797;47.352;8.164;2023-02-27T11:17:49;3.10;;;2.80;;
76837;SDS011;65797;47.352;8.164;2023-02-27T11:23:03;2.10;;;1.80;;
76837;SDS011;65797;47.352;8.164;2023-02-27T11:25:31;2.60;;;2.10;;
76837;SDS011;65797;47.352;8.164;2023-02-27T11:30:43;2.80;;;2.30;;
76837;SDS011;65797;47.352;8.164;2023-02-27T11:33:14;2.60;;;2.17;;
76837;SDS011;65797;47.352;8.164;2023-02-27T11:35:47;3.20;;;2.33;;
76837;SDS011;65797;47.352;8.164;2023-02-27T11:38:16;2.60;;;1.97;;
76837;SDS011;65797;47.352;8.164;2023-02-27T11:40:56;2.87;;;1.90;;
76837;SDS011;65797;47.352;8.164;2023-02-27T11:46:11;2.00;;;1.90;;
76837;SDS011;65797;47.352;8.164;2023-02-27T11:51:29;2.40;;;2.20;;
76837;SDS011;65797;47.352;8.164;2023-02-27T12:07:18;9.00;;;2.40;;
76837;SDS011;65797;47.352;8.164;2023-02-27T12:12:35;2.40;;;2.23;;
76837;SDS011;65797;47.352;8.164;2023-02-27T12:15:28;7.93;;;2.93;;
76837;SDS011;65797;47.352;8.164;2023-02-27T12:26:16;2.00;;;1.80;;
76837;SDS011;65797;47.352;8.164;2023-02-27T12:37:12;2.50;;;2.30;;
76837;SDS011;65797;47.352;8.164;2023-02-27T12:39:42;3.10;;;2.40;;
76837;SDS011;65797;47.352;8.164;2023-02-27T12:42:14;6.23;;;3.33;;
76837;SDS011;65797;47.352;8.164;2023-02-27T12:48:00;2.43;;;2.00;;
76837;SDS011;65797;47.352;8.164;2023-02-27T12:51:05;15.57;;;2.90;;
76837;SDS011;65797;47.352;8.164;2023-02-27T12:56:19;4.23;;;2.47;;
76837;SDS011;65797;47.352;8.164;2023-02-27T13:06:43;5.30;;;3.13;;
76837;SDS011;65797;47.352;8.164;2023-02-27T13:12:33;3.60;;;2.80;;
76837;SDS011;65797;47.352;8.164;2023-02-27T13:15:22;3.10;;;2.50;;
76837;SDS011;65797;47.352;8.164;2023-02-27T13:18:39;4.73;;;3.00;;
76837;SDS011;65797;47.352;8.164;2023-02-27T13:20:48;4.83;;;2.17;;
76837;SDS011;65797;47.352;8.164;2023-02-27T13:23:30;4.47;;;2.77;;
76837;SDS011;65797;47.352;8.164;2023-02-27T13:26:07;2.27;;;2.03;;
76837;SDS011;65797;47.352;8.164;2023-02-27T13:28:54;3.37;;;3.07;;
76837;SDS011;65797;47.352;8.164;2023-02-27T13:31:58;3.27;;;2.40;;
76837;SDS011;65797;47.352;8.164;2023-02-27T13:37:01;6.60;;;2.90;;
76837;SDS011;65797;47.352;8.164;2023-02-27T13:49:59;3.70;;;3.33;;
76837;SDS011;65797;47.352;8.164;2023-02-27T13:52:34;4.63;;;3.00;;
76837;SDS011;65797;47.352;8.164;2023-02-27T13:55:02;4.07;;;2.67;;
76837;SDS011;65797;47.352;8.164;2023-02-27T13:57:34;7.73;;;3.10;;
76837;SDS011;65797;47.352;8.164;2023-02-27T14:00:05;3.00;;;2.67;;
76837;SDS011;65797;47.352;8.164;2023-02-27T14:05:50;9.63;;;3.53;;
76837;SDS011;65797;47.352;8.164;2023-02-27T14:08:21;2.70;;;2.17;;
76837;SDS011;65797;47.352;8.164;2023-02-27T14:10:54;3.27;;;2.97;;
76837;SDS011;65797;47.352;8.164;2023-02-27T14:21:58;4.30;;;3.00;;
76837;SDS011;65797;47.352;8.164;2023-02-27T14:24:39;3.10;;;2.90;;
76837;SDS011;65797;47.352;8.164;2023-02-27T14:27:20;2.57;;;2.37;;
76837;SDS011;65797;47.352;8.164;2023-02-27T14:29:56;3.47;;;2.97;;
76837;SDS011;65797;47.352;8.164;2023-02-27T14:32:28;3.63;;;2.60;;
76837;SDS011;65797;47.352;8.164;2023-02-27T14:34:57;6.20;;;2.80;;
76837;SDS011;65797;47.352;8.164;2023-02-27T14:37:24;3.57;;;2.80;;
76837;SDS011;65797;47.352;8.164;2023-02-27T14:39:51;3.40;;;3.10;;
76837;SDS011;65797;47.352;8.164;2023-02-27T14:42:28;3.00;;;2.43;;
76837;SDS011;65797;47.352;8.164;2023-02-27T14:47:43;3.50;;;3.20;;
76837;SDS011;65797;47.352;8.164;2023-02-27T14:50:20;3.07;;;2.87;;
76837;SDS011;65797;47.352;8.164;2023-02-27T14:52:47;4.40;;;3.27;;
76837;SDS011;65797;47.352;8.164;2023-02-27T14:57:54;3.30;;;2.67;;
76837;SDS011;65797;47.352;8.164;2023-02-27T15:03:09;4.70;;;2.93;;
76837;SDS011;65797;47.352;8.164;2023-02-27T15:05:41;4.47;;;3.10;;
76837;SDS011;65797;47.352;8.164;2023-02-27T15:10:42;4.73;;;3.10;;
76837;SDS011;65797;47.352;8.164;2023-02-27T15:13:17;6.30;;;3.30;;
76837;SDS011;65797;47.352;8.164;2023-02-27T15:15:45;4.13;;;3.03;;
76837;SDS011;65797;47.352;8.164;2023-02-27T15:18:13;3.97;;;3.00;;
76837;SDS011;65797;47.352;8.164;2023-02-27T15:20:39;4.27;;;3.37;;
76837;SDS011;65797;47.352;8.164;2023-02-27T15:23:24;2.97;;;2.77;;
76837;SDS011;65797;47.352;8.164;2023-02-27T15:25:56;4.73;;;2.77;;
76837;SDS011;65797;47.352;8.164;2023-02-27T15:28:28;6.00;;;3.00;;
76837;SDS011;65797;47.352;8.164;2023-02-27T15:30:59;2.30;;;2.10;;
76837;SDS011;65797;47.352;8.164;2023-02-27T15:33:27;2.80;;;2.60;;
76837;SDS011;65797;47.352;8.164;2023-02-27T15:35:54;4.20;;;3.10;;
76837;SDS011;65797;47.352;8.164;2023-02-27T15:38:25;3.43;;;2.43;;
76837;SDS011;65797;47.352;8.164;2023-02-27T15:40:50;4.90;;;2.57;;
76837;SDS011;65797;47.352;8.164;2023-02-27T15:43:16;2.93;;;2.43;;
76837;SDS011;65797;47.352;8.164;2023-02-27T15:45:43;3.53;;;2.37;;
76837;SDS011;65797;47.352;8.164;2023-02-27T15:48:13;3.27;;;2.77;;
76837;SDS011;65797;47.352;8.164;2023-02-27T15:50:41;3.33;;;2.73;;
76837;SDS011;65797;47.352;8.164;2023-02-27T15:53:11;3.90;;;2.90;;
76837;SDS011;65797;47.352;8.164;2023-02-27T15:55:42;4.07;;;3.33;;
76837;SDS011;65797;47.352;8.164;2023-02-27T16:03:35;3.57;;;3.27;;
76837;SDS011;65797;47.352;8.164;2023-02-27T16:06:10;2.93;;;2.67;;
76837;SDS011;65797;47.352;8.164;2023-02-27T16:08:52;5.90;;;2.80;;
76837;SDS011;65797;47.352;8.164;2023-02-27T16:11:25;3.00;;;2.80;;
76837;SDS011;65797;47.352;8.164;2023-02-27T16:13:55;3.40;;;2.90;;
76837;SDS011;65797;47.352;8.164;2023-02-27T16:16:23;2.77;;;2.50;;
76837;SDS011;65797;47.352;8.164;2023-02-27T16:19:00;5.90;;;2.70;;
76837;SDS011;65797;47.352;8.164;2023-02-27T16:21:38;4.30;;;2.40;;
76837;SDS011;65797;47.352;8.164;2023-02-27T16:24:17;4.37;;;2.90;;
76837;SDS011;65797;47.352;8.164;2023-02-27T16:26:46;4.00;;;2.70;;
76837;SDS011;65797;47.352;8.164;2023-02-27T16:29:20;5.00;;;2.90;;
76837;SDS011;65797;47.352;8.164;2023-02-27T16:34:20;3.10;;;2.80;;
76837;SDS011;65797;47.352;8.164;2023-02-27T16:36:55;3.10;;;2.80;;
76837;SDS011;65797;47.352;8.164;2023-02-27T16:39:23;5.33;;;3.03;;
76837;SDS011;65797;47.352;8.164;2023-02-27T16:41:51;3.00;;;2.77;;
76837;SDS011;65797;47.352;8.164;2023-02-27T16:44:20;3.87;;;2.93;;
76837;SDS011;65797;47.352;8.164;2023-02-27T16:46:48;3.17;;;2.60;;
76837;SDS011;65797;47.352;8.164;2023-02-27T16:49:19;2.90;;;2.40;;
76837;SDS011;65797;47.352;8.164;2023-02-27T16:51:50;4.73;;;2.80;;
76837;SDS011;65797;47.352;8.164;2023-02-27T16:54:16;2.93;;;2.60;;
76837;SDS011;65797;47.352;8.164;2023-02-27T16:56:43;3.13;;;2.87;;
76837;SDS011;65797;47.352;8.164;2023-02-27T17:01:45;3.60;;;1.43;;
76837;SDS011;65797;47.352;8.164;2023-02-27T17:04:11;3.10;;;2.80;;
76837;SDS011;65797;47.352;8.164;2023-02-27T17:06:37;2.77;;;2.53;;
76837;SDS011;65797;47.352;8.164;2023-02-27T17:09:02;4.10;;;2.73;;
76837;SDS011;65797;47.352;8.164;2023-02-27T17:11:28;6.50;;;3.70;;
76837;SDS011;65797;47.352;8.164;2023-02-27T17:13:54;3.60;;;3.30;;
76837;SDS011;65797;47.352;8.164;2023-02-27T17:16:20;3.70;;;2.70;;
76837;SDS011;65797;47.352;8.164;2023-02-27T17:18:45;3.50;;;2.87;;
76837;SDS011;65797;47.352;8.164;2023-02-27T17:21:11;3.17;;;2.33;;
76837;SDS011;65797;47.352;8.164;2023-02-27T17:23:37;2.80;;;2.60;;
76837;SDS011;65797;47.352;8.164;2023-02-27T17:26:02;5.50;;;2.80;;
76837;SDS011;65797;47.352;8.164;2023-02-27T17:28:28;3.00;;;2.53;;
76837;SDS011;65797;47.352;8.164;2023-02-27T17:30:54;3.00;;;2.73;;
76837;SDS011;65797;47.352;8.164;2023-02-27T17:33:20;5.40;;;3.13;;
76837;SDS011;65797;47.352;8.164;2023-02-27T17:35:45;4.33;;;2.43;;
76837;SDS011;65797;47.352;8.164;2023-02-27T17:38:11;2.63;;;2.20;;
76837;SDS011;65797;47.352;8.164;2023-02-27T17:40:37;3.43;;;2.60;;
76837;SDS011;65797;47.352;8.164;2023-02-27T17:43:03;3.00;;;2.43;;
76837;SDS011;65797;47.352;8.164;2023-02-27T17:45:29;2.77;;;2.50;;
76837;SDS011;65797;47.352;8.164;2023-02-27T17:47:54;4.70;;;2.80;;
76837;SDS011;65797;47.352;8.164;2023-02-27T17:50:20;4.20;;;2.60;;
76837;SDS011;65797;47.352;8.164;2023-02-27T17:52:46;2.53;;;2.33;;
76837;SDS011;65797;47.352;8.164;2023-02-27T17:55:12;5.43;;;3.27;;
76837;SDS011;65797;47.352;8.164;2023-02-27T17:57:39;6.50;;;2.53;;
76837;SDS011;65797;47.352;8.164;2023-02-27T18:00:06;5.33;;;2.73;;
76837;SDS011;65797;47.352;8.164;2023-02-27T18:02:34;2.83;;;2.60;;
76837;SDS011;65797;47.352;8.164;2023-02-27T18:05:01;5.00;;;2.37;;
76837;SDS011;65797;47.352;8.164;2023-02-27T18:07:28;3.80;;;2.37;;
76837;SDS011;65797;47.352;8.164;2023-02-27T18:09:55;2.97;;;2.67;;
76837;SDS011;65797;47.352;8.164;2023-02-27T18:12:20;11.40;;;3.10;;
76837;SDS011;65797;47.352;8.164;2023-02-27T18:14:47;5.37;;;2.97;;
76837;SDS011;65797;47.352;8.164;2023-02-27T18:17:12;3.83;;;2.83;;
76837;SDS011;65797;47.352;8.164;2023-02-27T18:19:38;3.40;;;2.53;;
76837;SDS011;65797;47.352;8.164;2023-02-27T18:22:06;4.10;;;2.60;;
76837;SDS011;65797;47.352;8.164;2023-02-27T18:24:33;3.97;;;3.13;;
76837;SDS011;65797;47.352;8.164;2023-02-27T18:26:59;4.60;;;2.67;;